TimeMST,TemperatureF,Dew PointF,Humidity,Sea Level PressureIn,VisibilityMPH,Wind Direction,Wind SpeedMPH,Gust SpeedMPH,PrecipitationIn,Events,Conditions,WindDirDegrees,DateUTC
12:56 AM,19.9,10.0,65,30.36,10.0,South,4.6,-,N/A,,Clear,170,2013-01-09 07:56:00
1:56 AM,19.9,10.9,68,30.36,10.0,SW,6.9,-,N/A,,Clear,230,2013-01-09 08:56:00
2:56 AM,19.0,10.0,68,30.35,10.0,SE,4.6,-,N/A,,Clear,140,2013-01-09 09:56:00
3:56 AM,17.1,10.0,74,30.36,10.0,Calm,Calm,-,N/A,,Clear,0,2013-01-09 10:56:00
4:56 AM,17.1,10.0,74,30.37,10.0,Calm,Calm,-,N/A,,Clear,0,2013-01-09 11:56:00
6:56 AM,16.0,9.0,74,30.49,10.0,Calm,Calm,-,N/A,,Clear,0,2013-01-09 13:56:00
7:56 AM,16.0,9.0,74,30.51,10.0,ESE,3.5,-,N/A,,Clear,120,2013-01-09 14:56:00
8:56 AM,23.0,14.0,68,30.53,10.0,ESE,9.2,-,N/A,,Clear,120,2013-01-09 15:56:00
9:56 AM,30.0,17.1,59,30.49,10.0,ESE,6.9,-,N/A,,Clear,120,2013-01-09 16:56:00
10:56 AM,36.0,18.0,48,30.45,10.0,East,8.1,-,N/A,,Clear,100,2013-01-09 17:56:00
11:56 AM,41.0,19.0,41,30.39,10.0,ENE,3.5,-,N/A,,Clear,70,2013-01-09 18:56:00
12:56 PM,43.0,18.0,37,30.34,10.0,Calm,Calm,-,N/A,,Clear,0,2013-01-09 19:56:00
1:56 PM,45.0,17.1,33,30.30,10.0,Variable,3.5,-,N/A,,Clear,0,2013-01-09 20:56:00
2:56 PM,48.0,17.1,29,30.27,10.0,Variable,3.5,-,N/A,,Clear,0,2013-01-09 21:56:00
3:56 PM,48.9,16.0,27,30.25,10.0,ESE,6.9,-,N/A,,Clear,110,2013-01-09 22:56:00
4:56 PM,46.9,16.0,29,30.24,10.0,Calm,Calm,-,N/A,,Clear,0,2013-01-09 23:56:00
5:56 PM,41.0,15.1,35,30.25,10.0,Calm,Calm,-,N/A,,Clear,0,2013-01-10 00:56:00
6:56 PM,26.6,10.4,51,30.18,10.0,WSW,3.5,-,N/A,,Clear,240,2013-01-10 01:56:00
7:56 PM,25.0,10.0,53,30.29,10.0,WSW,3.5,-,N/A,,Clear,250,2013-01-10 02:56:00
8:56 PM,25.0,12.0,58,30.26,10.0,SSW,3.5,-,N/A,,Clear,210,2013-01-10 03:56:00
9:56 PM,25.0,14.0,63,30.21,10.0,SE,3.5,-,N/A,,Clear,140,2013-01-10 04:56:00
11:56 PM,21.9,12.9,68,30.16,10.0,ESE,3.5,-,N/A,,Clear,110,2013-01-10 06:56:00